Time;durP1;ratioP1;P1;durP2;ratioP2;P2;SDS_P1;SDS_P2;PMS_P1;PMS_P2;Temp;Humidity;BMP_temperature;BMP_pressure;BME280_temperature;BME280_humidity;BME280_pressure;Samples;Min_cycle;Max_cycle;Signal;HPM_P1;HPM_P2
2021/04/13 00:01:14;;;;;;;18.05;11.10;;;;;;;;;;5096058;28;20194;-47
2021/04/13 00:03:42;;;;;;;20.10;12.20;;;;;;;;;;5096096;28;20228;-56
2021/04/13 00:06:11;;;;;;;17.38;12.02;;;;;;;;;;5095221;28;20213;-53
2021/04/13 00:08:38;;;;;;;23.77;14.45;;;;;;;;;;5095287;28;20214;-50
2021/04/13 00:11:06;;;;;;;32.30;20.50;;;;;;;;;;5095496;28;20182;-51
2021/04/13 00:16:37;;;;;;;19.45;11.68;;;;;;;;;;5095415;28;20177;-55
2021/04/13 00:19:06;;;;;;;18.92;11.65;;;;;;;;;;5095212;28;20209;-50
2021/04/13 00:21:45;;;;;;;16.23;10.80;;;;;;;;;;5095337;28;20190;-47
2021/04/13 00:24:14;;;;;;;13.20;9.93;;;;;;;;;;5093542;28;20238;-54
2021/04/13 00:26:46;;;;;;;17.65;11.52;;;;;;;;;;5095233;28;20583;-46
2021/04/13 00:29:21;;;;;;;16.60;11.15;;;;;;;;;;5096386;28;20504;-52
2021/04/13 00:31:49;;;;;;;14.70;10.90;;;;;;;;;;5094375;28;20306;-46
2021/04/13 00:34:23;;;;;;;14.35;10.13;;;;;;;;;;5089595;28;20235;-49
2021/04/13 00:36:51;;;;;;;16.75;10.88;;;;;;;;;;5075591;28;20210;-48
2021/04/13 00:39:20;;;;;;;13.95;9.98;;;;;;;;;;5075317;28;20178;-46
2021/04/13 00:41:51;;;;;;;18.95;11.10;;;;;;;;;;5075556;28;20205;-50
2021/04/13 00:44:18;;;;;;;14.88;10.60;;;;;;;;;;5075626;28;20202;-50
2021/04/13 00:46:47;;;;;;;15.00;10.40;;;;;;;;;;5075466;28;20546;-45
2021/04/13 00:49:30;;;;;;;13.57;10.63;;;;;;;;;;5075270;28;20218;-47
2021/04/13 00:52:00;;;;;;;16.85;11.55;;;;;;;;;;5087592;28;20517;-55
2021/04/13 00:54:28;;;;;;;15.23;10.40;;;;;;;;;;5095203;28;20238;-54
2021/04/13 00:56:55;;;;;;;15.32;9.98;;;;;;;;;;5095715;28;20307;-50
2021/04/13 00:59:23;;;;;;;15.57;9.57;;;;;;;;;;5094981;28;20364;-48
2021/04/13 01:01:53;;;;;;;14.32;9.23;;;;;;;;;;5095910;28;20273;-49
2021/04/13 01:04:21;;;;;;;17.52;11.30;;;;;;;;;;5095302;28;20206;-51
2021/04/13 01:06:57;;;;;;;13.75;9.55;;;;;;;;;;5095578;28;20190;-47
2021/04/13 01:09:26;;;;;;;16.77;10.50;;;;;;;;;;5095069;28;20674;-52
2021/04/13 01:11:54;;;;;;;18.17;10.23;;;;;;;;;;5095059;28;20198;-53
2021/04/13 01:14:23;;;;;;;12.93;9.15;;;;;;;;;;5095267;28;20249;-51
2021/04/13 01:16:55;;;;;;;13.55;9.25;;;;;;;;;;5094943;28;20214;-54
2021/04/13 01:19:37;;;;;;;19.38;10.75;;;;;;;;;;5095193;28;20197;-53
2021/04/13 01:22:42;;;;;;;15.55;10.32;;;;;;;;;;5094612;28;20212;-51
2021/04/13 01:25:11;;;;;;;14.18;9.10;;;;;;;;;;5098930;28;20236;-50
2021/04/13 01:27:38;;;;;;;16.55;9.13;;;;;;;;;;5099408;28;20202;-50
2021/04/13 01:30:25;;;;;;;17.00;9.35;;;;;;;;;;5099016;28;20202;-49
2021/04/13 01:32:52;;;;;;;11.20;8.25;;;;;;;;;;5082825;28;20261;-47
2021/04/13 01:35:29;;;;;;;13.88;9.20;;;;;;;;;;5078421;28;20194;-59
2021/04/13 01:38:30;;;;;;;15.90;9.95;;;;;;;;;;5078930;28;20233;-53
2021/04/13 01:41:08;;;;;;;15.15;10.88;;;;;;;;;;5090973;28;20251;-54
2021/04/13 01:43:36;;;;;;;18.23;11.57;;;;;;;;;;5098735;28;20287;-48
2021/04/13 01:46:05;;;;;;;12.77;9.38;;;;;;;;;;5098890;28;20258;-49
2021/04/13 01:48:32;;;;;;;14.32;9.40;;;;;;;;;;5098278;28;20252;-51
2021/04/13 01:51:00;;;;;;;13.00;9.48;;;;;;;;;;5098669;28;20194;-47
2021/04/13 01:53:41;;;;;;;18.98;11.80;;;;;;;;;;5098390;28;20218;-54
2021/04/13 01:56:10;;;;;;;15.20;10.93;;;;;;;;;;5098838;28;20244;-52
2021/04/13 01:58:40;;;;;;;15.07;10.63;;;;;;;;;;5098431;28;20205;-50
2021/04/13 02:01:31;;;;;;;14.77;10.38;;;;;;;;;;5098291;28;20216;-54
2021/04/13 02:04:00;;;;;;;16.73;11.00;;;;;;;;;;5096446;28;20221;-47
2021/04/13 02:06:30;;;;;;;13.55;9.43;;;;;;;;;;5098346;28;20194;-49
2021/04/13 02:09:27;;;;;;;18.63;11.20;;;;;;;;;;5098494;28;20204;-49
2021/04/13 02:11:56;;;;;;;18.25;10.65;;;;;;;;;;5079267;28;20213;-50
2021/04/13 02:14:25;;;;;;;16.95;11.15;;;;;;;;;;5097881;28;20221;-46
2021/04/13 02:16:54;;;;;;;18.40;12.20;;;;;;;;;;5097832;28;20214;-48
2021/04/13 02:19:22;;;;;;;14.50;10.27;;;;;;;;;;5097791;28;20249;-54
2021/04/13 02:22:09;;;;;;;16.10;11.82;;;;;;;;;;5098241;28;20349;-54
2021/04/13 02:24:37;;;;;;;14.43;10.23;;;;;;;;;;5097989;28;20205;-48
2021/04/13 02:27:09;;;;;;;15.43;11.57;;;;;;;;;;5097681;28;20194;-45
2021/04/13 02:29:51;;;;;;;16.77;10.75;;;;;;;;;;5098026;28;20213;-53
2021/04/13 02:32:20;;;;;;;17.67;11.18;;;;;;;;;;5095538;28;20232;-49
2021/04/13 02:34:48;;;;;;;16.73;9.95;;;;;;;;;;5097057;28;20214;-46
2021/04/13 02:37:34;;;;;;;15.90;10.63;;;;;;;;;;5098129;28;20209;-51
2021/04/13 02:40:06;;;;;;;16.38;11.38;;;;;;;;;;5095508;28;20229;-52
2021/04/13 02:42:38;;;;;;;17.35;11.45;;;;;;;;;;5097172;28;20190;-47
2021/04/13 02:45:11;;;;;;;20.15;12.77;;;;;;;;;;5097781;28;20209;-48
2021/04/13 02:47:41;;;;;;;15.75;10.40;;;;;;;;;;5097639;28;20209;-48
2021/04/13 02:50:08;;;;;;;16.80;10.60;;;;;;;;;;5097919;28;20190;-47
2021/04/13 02:55:41;;;;;;;15.50;11.10;;;;;;;;;;5097739;28;20228;-49
2021/04/13 02:58:10;;;;;;;19.27;10.10;;;;;;;;;;5097627;28;20200;-54
2021/04/13 03:00:38;;;;;;;18.13;10.80;;;;;;;;;;5097452;28;20213;-50
2021/04/13 03:03:07;;;;;;;19.23;11.70;;;;;;;;;;5095437;28;20238;-48
2021/04/13 03:05:34;;;;;;;18.48;12.07;;;;;;;;;;5097172;28;20210;-52
2021/04/13 03:08:34;;;;;;;19.35;11.27;;;;;;;;;;5098070;28;20194;-56
2021/04/13 03:11:07;;;;;;;18.02;12.35;;;;;;;;;;5095488;28;20233;-54
2021/04/13 03:13:35;;;;;;;20.95;11.68;;;;;;;;;;5097251;28;20248;-51
2021/04/13 03:16:20;;;;;;;18.25;11.35;;;;;;;;;;5097516;28;20214;-46
2021/04/13 03:18:48;;;;;;;15.30;10.90;;;;;;;;;;5097300;28;20225;-51
2021/04/13 03:21:16;;;;;;;19.60;11.93;;;;;;;;;;5096766;28;20213;-53
2021/04/13 03:23:47;;;;;;;19.02;11.98;;;;;;;;;;5097145;28;20214;-49
2021/04/13 03:26:18;;;;;;;16.05;11.25;;;;;;;;;;5097105;28;20221;-48
2021/04/13 03:28:48;;;;;;;18.73;11.82;;;;;;;;;;5096923;28;20194;-50
2021/04/13 03:31:22;;;;;;;19.17;12.80;;;;;;;;;;5096889;28;20241;-53
2021/04/13 03:33:49;;;;;;;17.50;11.95;;;;;;;;;;5087354;28;20237;-50
2021/04/13 03:36:21;;;;;;;18.02;12.57;;;;;;;;;;5096267;28;20256;-49
2021/04/13 03:38:58;;;;;;;19.15;13.85;;;;;;;;;;5097129;28;20190;-53
2021/04/13 03:41:25;;;;;;;21.85;14.50;;;;;;;;;;5097210;28;20217;-47
2021/04/13 03:43:58;;;;;;;20.52;13.32;;;;;;;;;;5096825;28;20201;-48
2021/04/13 03:46:26;;;;;;;21.80;12.95;;;;;;;;;;5096428;28;20194;-51
2021/04/13 03:48:53;;;;;;;19.73;13.45;;;;;;;;;;5096786;28;20206;-52
2021/04/13 03:51:52;;;;;;;16.80;12.52;;;;;;;;;;5096365;28;20185;-51
2021/04/13 03:54:21;;;;;;;24.63;14.48;;;;;;;;;;5095464;28;20289;-48
2021/04/13 03:56:48;;;;;;;23.48;13.82;;;;;;;;;;5096582;28;20190;-50
2021/04/13 03:59:22;;;;;;;19.50;13.30;;;;;;;;;;5089031;28;20205;-49
2021/04/13 04:01:50;;;;;;;21.83;13.20;;;;;;;;;;5096857;28;20206;-54
2021/04/13 04:04:24;;;;;;;23.55;13.98;;;;;;;;;;5096616;28;20209;-55
2021/04/13 04:07:18;;;;;;;26.17;14.65;;;;;;;;;;5096421;28;20249;-55
2021/04/13 04:09:45;;;;;;;19.33;12.98;;;;;;;;;;5092880;28;20182;-49
2021/04/13 04:15:27;;;;;;;21.33;13.07;;;;;;;;;;5086185;28;20317;-48
2021/04/13 04:17:54;;;;;;;19.98;14.48;;;;;;;;;;5076537;28;20194;-50
2021/04/13 04:20:41;;;;;;;19.38;13.00;;;;;;;;;;5076487;28;20249;-57
2021/04/13 04:23:09;;;;;;;21.98;13.70;;;;;;;;;;5076241;28;20201;-48
2021/04/13 04:25:46;;;;;;;19.52;13.27;;;;;;;;;;5076266;28;20211;-49
2021/04/13 04:28:15;;;;;;;21.42;13.93;;;;;;;;;;5076479;28;20206;-54
2021/04/13 04:30:43;;;;;;;22.90;13.18;;;;;;;;;;5055822;28;20207;-49
2021/04/13 04:33:31;;;;;;;23.73;13.35;;;;;;;;;;5056226;28;20207;-54
2021/04/13 04:35:59;;;;;;;27.30;14.95;;;;;;;;;;5052958;28;20207;-55
2021/04/13 04:38:27;;;;;;;23.45;14.60;;;;;;;;;;5056092;28;20207;-47
2021/04/13 04:41:01;;;;;;;21.27;13.00;;;;;;;;;;5055712;28;20191;-53
2021/04/13 04:43:46;;;;;;;22.38;13.65;;;;;;;;;;5056310;28;20319;-57
2021/04/13 04:46:35;;;;;;;19.75;12.30;;;;;;;;;;5055708;28;20218;-55
2021/04/13 04:49:06;;;;;;;21.90;14.65;;;;;;;;;;5058561;28;20210;-54
2021/04/13 04:52:01;;;;;;;22.33;13.90;;;;;;;;;;5075633;28;20229;-54
2021/04/13 04:54:28;;;;;;;22.42;14.93;;;;;;;;;;5076013;28;20211;-49
2021/04/13 04:56:55;;;;;;;22.20;12.77;;;;;;;;;;5075635;28;20202;-50
2021/04/13 05:00:00;;;;;;;22.90;14.77;;;;;;;;;;5099086;28;20182;-48
2021/04/13 05:02:26;;;;;;;23.30;15.57;;;;;;;;;;5099204;28;20194;-54
2021/04/13 05:04:54;;;;;;;24.02;14.32;;;;;;;;;;5089881;28;20218;-52
2021/04/13 05:07:32;;;;;;;23.73;16.23;;;;;;;;;;5080001;28;20203;-57
2021/04/13 05:09:59;;;;;;;22.20;15.25;;;;;;;;;;5079473;28;20210;-51
2021/04/13 05:12:25;;;;;;;24.95;17.35;;;;;;;;;;5079693;28;20195;-56
2021/04/13 05:14:53;;;;;;;23.05;14.95;;;;;;;;;;5077226;28;20273;-54
2021/04/13 05:17:20;;;;;;;24.08;14.90;;;;;;;;;;5079625;28;20206;-52
2021/04/13 05:19:51;;;;;;;24.30;14.82;;;;;;;;;;5079411;28;20190;-50
2021/04/13 05:22:36;;;;;;;21.30;14.02;;;;;;;;;;5059525;28;20233;-55
2021/04/13 05:25:04;;;;;;;22.33;13.75;;;;;;;;;;5059148;28;20259;-51
2021/04/13 05:27:40;;;;;;;23.42;13.50;;;;;;;;;;5095819;28;20222;-56
2021/04/13 05:30:08;;;;;;;23.23;15.18;;;;;;;;;;5102385;28;20182;-52
2021/04/13 05:32:35;;;;;;;38.75;14.32;;;;;;;;;;5099519;28;20323;-52
2021/04/13 05:35:03;;;;;;;25.30;13.60;;;;;;;;;;5082084;28;20225;-47
2021/04/13 05:40:42;;;;;;;21.23;14.68;;;;;;;;;;5081007;28;20268;-53
2021/04/13 05:43:10;;;;;;;22.10;14.02;;;;;;;;;;5078454;28;20202;-52
2021/04/13 05:48:41;;;;;;;25.38;17.02;;;;;;;;;;5078629;28;20196;-48
2021/04/13 05:51:08;;;;;;;22.40;15.85;;;;;;;;;;5078768;28;20203;-47
2021/04/13 05:53:36;;;;;;;23.58;16.83;;;;;;;;;;5078468;28;20305;-57
2021/04/13 05:56:04;;;;;;;26.83;16.70;;;;;;;;;;5068053;28;20218;-57
2021/04/13 05:58:33;;;;;;;22.38;15.73;;;;;;;;;;5058245;28;20219;-52
2021/04/13 06:01:21;;;;;;;24.05;14.82;;;;;;;;;;5058890;28;20195;-53
2021/04/13 06:03:58;;;;;;;26.05;17.45;;;;;;;;;;5058775;28;20199;-55
2021/04/13 06:06:26;;;;;;;25.80;16.45;;;;;;;;;;5058796;28;20205;-47
2021/04/13 06:08:59;;;;;;;23.98;15.88;;;;;;;;;;5058375;28;20206;-54
2021/04/13 06:11:31;;;;;;;24.20;16.52;;;;;;;;;;5078000;28;20210;-52
2021/04/13 06:14:08;;;;;;;26.77;17.45;;;;;;;;;;5098429;28;20372;-52
2021/04/13 06:16:37;;;;;;;25.23;18.55;;;;;;;;;;5097811;28;20205;-56
2021/04/13 06:19:04;;;;;;;26.30;16.67;;;;;;;;;;5098085;28;20206;-46
2021/04/13 06:21:42;;;;;;;24.63;16.85;;;;;;;;;;5098463;28;20236;-56
2021/04/13 06:24:09;;;;;;;29.00;17.50;;;;;;;;;;5095415;28;20229;-54
2021/04/13 06:26:37;;;;;;;23.63;16.63;;;;;;;;;;5097561;28;20296;-57
2021/04/13 06:29:04;;;;;;;23.33;16.02;;;;;;;;;;5098334;28;20221;-56
2021/04/13 06:31:31;;;;;;;26.15;15.60;;;;;;;;;;5108230;28;20197;-53
2021/04/13 06:34:27;;;;;;;23.08;15.70;;;;;;;;;;5113713;28;20209;-54
2021/04/13 06:36:55;;;;;;;24.08;16.17;;;;;;;;;;5107982;28;20206;-54
2021/04/13 06:39:22;;;;;;;23.33;16.30;;;;;;;;;;5076907;28;20199;-53
2021/04/13 06:42:18;;;;;;;28.15;16.60;;;;;;;;;;5077428;28;20203;-56
2021/04/13 06:45:06;;;;;;;24.05;16.50;;;;;;;;;;5106948;28;20213;-46
2021/04/13 06:50:43;;;;;;;31.13;17.75;;;;;;;;;;5117187;28;20207;-50
2021/04/13 06:53:19;;;;;;;22.67;16.80;;;;;;;;;;5076500;28;20199;-48
2021/04/13 06:56:17;;;;;;;25.38;15.38;;;;;;;;;;5076544;28;20225;-52
2021/04/13 06:58:50;;;;;;;27.17;17.38;;;;;;;;;;5081312;28;20373;-57
2021/04/13 07:01:21;;;;;;;25.38;15.98;;;;;;;;;;5096227;28;20238;-48
2021/04/13 07:06:56;;;;;;;25.52;15.35;;;;;;;;;;5096884;28;20180;-50
2021/04/13 07:09:30;;;;;;;21.10;14.30;;;;;;;;;;5096710;28;20204;-49
2021/04/13 07:12:03;;;;;;;14.27;10.38;;;;;;;;;;5096560;28;20210;-53
2021/04/13 07:14:32;;;;;;;19.40;10.32;;;;;;;;;;5095909;28;20238;-49
2021/04/13 07:17:03;;;;;;;19.17;10.25;;;;;;;;;;5091855;28;20216;-51
2021/04/13 07:19:55;;;;;;;18.23;10.00;;;;;;;;;;5076113;28;20190;-50
2021/04/13 07:22:25;;;;;;;19.80;10.00;;;;;;;;;;5075481;28;20206;-54
2021/04/13 07:24:54;;;;;;;11.45;8.73;;;;;;;;;;5076507;28;20202;-52
2021/04/13 07:27:35;;;;;;;13.07;9.27;;;;;;;;;;5076044;28;20270;-55
2021/04/13 07:30:05;;;;;;;16.50;9.98;;;;;;;;;;5075688;28;20211;-52
2021/04/13 07:32:36;;;;;;;13.93;9.90;;;;;;;;;;5075036;28;20206;-53
2021/04/13 07:35:07;;;;;;;15.52;10.35;;;;;;;;;;5075368;28;20253;-53
2021/04/13 07:37:34;;;;;;;13.95;9.45;;;;;;;;;;5075561;28;20174;-53
2021/04/13 07:40:12;;;;;;;25.65;9.80;;;;;;;;;;5074949;28;20178;-52
2021/04/13 07:42:42;;;;;;;18.73;9.23;;;;;;;;;;5074870;28;20261;-51
2021/04/13 07:45:24;;;;;;;37.30;11.15;;;;;;;;;;5080676;28;20266;-46
2021/04/13 07:48:06;;;;;;;19.42;10.95;;;;;;;;;;5068533;28;20228;-51
2021/04/13 07:50:51;;;;;;;22.55;9.10;;;;;;;;;;5057931;28;20236;-45
2021/04/13 07:53:27;;;;;;;24.92;11.45;;;;;;;;;;5094462;28;20205;-48
2021/04/13 07:55:57;;;;;;;15.32;9.90;;;;;;;;;;5094584;28;20205;-55
2021/04/13 07:58:34;;;;;;;15.88;10.07;;;;;;;;;;5094965;28;20206;-48
2021/04/13 08:01:06;;;;;;;15.10;9.13;;;;;;;;;;5095262;28;20218;-48
2021/04/13 08:03:33;;;;;;;15.27;9.20;;;;;;;;;;5095376;28;20189;-46
2021/04/13 08:06:02;;;;;;;16.27;10.27;;;;;;;;;;5094921;28;20194;-57
2021/04/13 08:08:37;;;;;;;16.08;10.80;;;;;;;;;;5095257;28;20338;-50
2021/04/13 08:11:09;;;;;;;13.85;10.25;;;;;;;;;;5095647;28;20189;-54
2021/04/13 08:13:36;;;;;;;14.52;10.32;;;;;;;;;;5094765;28;20237;-50
2021/04/13 08:16:31;;;;;;;24.65;10.63;;;;;;;;;;5077297;28;20206;-54
2021/04/13 08:19:25;;;;;;;16.33;10.77;;;;;;;;;;5048481;28;20193;-52
2021/04/13 08:22:09;;;;;;;18.42;11.30;;;;;;;;;;5094452;28;20198;-50
2021/04/13 08:24:38;;;;;;;15.80;11.00;;;;;;;;;;5095107;28;20206;-51
2021/04/13 08:27:26;;;;;;;13.73;10.75;;;;;;;;;;5094987;28;20187;-52
2021/04/13 08:30:20;;;;;;;19.58;10.70;;;;;;;;;;5089333;28;20198;-48
2021/04/13 08:33:00;;;;;;;14.77;10.52;;;;;;;;;;5097953;28;20218;-50
2021/04/13 08:35:41;;;;;;;16.92;11.43;;;;;;;;;;5101423;28;20283;-49
2021/04/13 08:38:23;;;;;;;17.58;11.10;;;;;;;;;;5100880;28;20201;-49
2021/04/13 08:41:06;;;;;;;23.15;10.55;;;;;;;;;;5097393;28;20205;-54
2021/04/13 08:43:41;;;;;;;23.23;10.85;;;;;;;;;;5089637;28;20242;-55
2021/04/13 08:46:39;;;;;;;17.55;9.43;;;;;;;;;;5100564;28;20235;-54
2021/04/13 08:49:07;;;;;;;21.95;10.88;;;;;;;;;;5100018;28;20226;-55
2021/04/13 08:51:43;;;;;;;21.02;11.73;;;;;;;;;;5099389;28;20269;-55
2021/04/13 08:54:32;;;;;;;16.05;9.70;;;;;;;;;;5099922;28;20285;-51
2021/04/13 08:57:02;;;;;;;20.95;10.63;;;;;;;;;;5099861;28;20249;-54
2021/04/13 08:59:45;;;;;;;15.25;9.02;;;;;;;;;;5100277;28;20210;-52
2021/04/13 09:02:22;;;;;;;16.73;8.23;;;;;;;;;;5100563;28;20213;-51
2021/04/13 09:05:00;;;;;;;17.48;8.65;;;;;;;;;;5100165;28;20289;-54
2021/04/13 09:07:30;;;;;;;16.75;8.85;;;;;;;;;;5099875;28;20230;-51
2021/04/13 09:09:59;;;;;;;16.30;9.25;;;;;;;;;;5099535;28;20216;-52
2021/04/13 09:12:41;;;;;;;13.60;8.80;;;;;;;;;;5114443;28;20189;-55
2021/04/13 09:15:21;;;;;;;14.40;9.32;;;;;;;;;;5087387;28;20296;-52
2021/04/13 09:17:56;;;;;;;11.85;8.48;;;;;;;;;;5109271;28;20193;-50
2021/04/13 09:20:40;;;;;;;11.88;7.60;;;;;;;;;;5099767;28;20211;-52
2021/04/13 09:23:31;;;;;;;10.48;6.75;;;;;;;;;;5093872;28;20395;-48
2021/04/13 09:26:06;;;;;;;14.75;7.05;;;;;;;;;;5099691;28;20214;-50
2021/04/13 09:28:55;;;;;;;13.88;7.38;;;;;;;;;;5097498;28;20198;-49
2021/04/13 09:31:28;;;;;;;15.25;7.63;;;;;;;;;;5119852;28;20213;-51
2021/04/13 09:34:09;;;;;;;15.20;8.98;;;;;;;;;;5120148;28;20273;-50
2021/04/13 09:36:45;;;;;;;18.88;7.88;;;;;;;;;;5120227;28;20208;-53
2021/04/13 09:42:58;;;;;;;10.70;6.90;;;;;;;;;;5091496;28;20205;-59
2021/04/13 09:45:27;;;;;;;15.20;8.18;;;;;;;;;;5094573;28;20212;-53
2021/04/13 09:51:16;;;;;;;10.52;5.07;;;;;;;;;;5088285;28;20248;-52
2021/04/13 09:54:02;;;;;;;11.25;4.95;;;;;;;;;;5100459;28;20324;-54
2021/04/13 09:56:46;;;;;;;12.55;6.20;;;;;;;;;;5117425;28;20402;-56
2021/04/13 09:59:28;;;;;;;11.35;6.30;;;;;;;;;;5117195;28;20197;-54
2021/04/13 10:02:00;;;;;;;18.98;5.68;;;;;;;;;;5117986;28;20240;-50
2021/04/13 10:04:52;;;;;;;12.25;5.13;;;;;;;;;;5117355;28;20205;-51
2021/04/13 10:07:29;;;;;;;8.98;2.90;;;;;;;;;;5110073;28;20193;-48
2021/04/13 10:10:23;;;;;;;12.48;4.28;;;;;;;;;;5096243;28;20190;-48
2021/04/13 10:13:07;;;;;;;12.75;3.92;;;;;;;;;;5096289;28;20221;-55
2021/04/13 10:16:02;;;;;;;10.88;4.20;;;;;;;;;;5087732;28;20226;-51
2021/04/13 10:18:47;;;;;;;14.68;3.72;;;;;;;;;;5041607;28;20206;-54
2021/04/13 10:24:21;;;;;;;8.55;3.63;;;;;;;;;;5046776;28;20259;-53
2021/04/13 10:27:13;;;;;;;9.15;3.60;;;;;;;;;;5093947;28;20269;-56
2021/04/13 10:30:10;;;;;;;8.82;4.47;;;;;;;;;;5077927;28;20189;-50
2021/04/13 10:32:56;;;;;;;6.75;2.97;;;;;;;;;;5096745;28;20271;-51
2021/04/13 10:36:00;;;;;;;12.80;3.55;;;;;;;;;;5064748;28;20253;-49
2021/04/13 10:38:56;;;;;;;9.68;3.63;;;;;;;;;;5083538;28;20292;-55
2021/04/13 10:41:41;;;;;;;6.45;2.90;;;;;;;;;;5094230;28;20241;-54
2021/04/13 10:44:28;;;;;;;7.88;3.38;;;;;;;;;;5095156;28;20209;-50
2021/04/13 10:47:26;;;;;;;10.38;3.50;;;;;;;;;;5075390;28;20195;-51
2021/04/13 10:50:10;;;;;;;8.75;2.63;;;;;;;;;;5075400;28;20199;-51
2021/04/13 10:53:03;;;;;;;5.38;3.05;;;;;;;;;;5089015;28;20209;-56
2021/04/13 10:55:34;;;;;;;12.05;4.22;;;;;;;;;;5085477;28;20222;-53
2021/04/13 10:58:50;;;;;;;6.70;3.30;;;;;;;;;;5083164;28;20202;-48
2021/04/13 11:01:32;;;;;;;5.85;3.90;;;;;;;;;;5014136;28;20455;-54
2021/04/13 11:04:15;;;;;;;12.50;3.47;;;;;;;;;;5002366;28;20217;-49
2021/04/13 11:07:07;;;;;;;6.55;3.75;;;;;;;;;;5076364;28;20206;-47
2021/04/13 11:09:40;;;;;;;10.75;4.22;;;;;;;;;;5095783;28;20214;-55
2021/04/13 11:15:27;;;;;;;12.75;4.72;;;;;;;;;;5094574;28;20502;-49
2021/04/13 11:18:03;;;;;;;8.23;4.40;;;;;;;;;;5096579;28;20213;-52
2021/04/13 11:20:54;;;;;;;9.85;4.63;;;;;;;;;;5084047;28;20235;-49
2021/04/13 11:23:38;;;;;;;9.85;5.20;;;;;;;;;;5077533;28;20198;-46
2021/04/13 11:26:40;;;;;;;10.10;4.82;;;;;;;;;;5102136;28;20192;-59
2021/04/13 11:29:31;;;;;;;14.88;4.95;;;;;;;;;;5086618;28;20215;-48
2021/04/13 11:32:34;;;;;;;13.48;4.97;;;;;;;;;;5113883;28;20198;-53
2021/04/13 11:35:25;;;;;;;11.73;5.63;;;;;;;;;;5091590;28;20237;-57
2021/04/13 11:38:09;;;;;;;12.85;5.38;;;;;;;;;;5076819;28;20229;-49
2021/04/13 11:43:45;;;;;;;8.50;5.25;;;;;;;;;;5094422;28;20236;-53
2021/04/13 11:46:21;;;;;;;7.22;4.90;;;;;;;;;;5096259;28;20226;-57
2021/04/13 11:49:07;;;;;;;11.13;5.30;;;;;;;;;;5096375;28;20206;-61
2021/04/13 11:52:02;;;;;;;8.60;5.60;;;;;;;;;;5112716;28;20189;-56
2021/04/13 11:54:53;;;;;;;12.95;4.80;;;;;;;;;;5110248;28;20218;-59
2021/04/13 11:57:24;;;;;;;10.23;5.05;;;;;;;;;;5089712;28;20214;-58
2021/04/13 12:00:35;;;;;;;15.70;5.10;;;;;;;;;;5089788;28;20210;-60
2021/04/13 12:03:04;;;;;;;12.13;5.75;;;;;;;;;;5081629;28;20200;-53
2021/04/13 12:08:52;;;;;;;8.35;4.15;;;;;;;;;;5089289;28;20274;-59
2021/04/13 12:11:38;;;;;;;11.85;4.93;;;;;;;;;;5091800;28;20190;-63
2021/04/13 12:14:39;;;;;;;9.00;3.95;;;;;;;;;;5087547;28;20228;-55
2021/04/13 12:17:11;;;;;;;7.78;3.70;;;;;;;;;;5069124;28;20194;-56
2021/04/13 12:20:08;;;;;;;10.33;4.63;;;;;;;;;;5079938;28;20214;-59
2021/04/13 12:22:39;;;;;;;6.90;3.90;;;;;;;;;;5072777;28;20499;-61
2021/04/13 12:25:29;;;;;;;10.70;4.13;;;;;;;;;;5078236;28;20532;-59
2021/04/13 12:31:28;;;;;;;7.97;3.20;;;;;;;;;;5075762;28;20412;-56
2021/04/13 12:33:59;;;;;;;6.70;2.93;;;;;;;;;;5102532;28;20479;-56
2021/04/13 12:36:45;;;;;;;11.00;3.43;;;;;;;;;;5089989;28;20464;-56
2021/04/13 12:39:14;;;;;;;8.53;2.60;;;;;;;;;;5091189;28;20448;-58
2021/04/13 12:41:59;;;;;;;6.17;2.93;;;;;;;;;;5092466;28;20499;-55
2021/04/13 12:44:27;;;;;;;5.57;2.27;;;;;;;;;;5092854;28;20499;-56
2021/04/13 12:46:55;;;;;;;9.70;4.05;;;;;;;;;;5083297;28;20470;-60
2021/04/13 12:49:27;;;;;;;7.50;2.80;;;;;;;;;;5090618;28;20257;-56
2021/04/13 12:51:55;;;;;;;6.00;2.80;;;;;;;;;;5075256;28;20535;-49
2021/04/13 12:54:28;;;;;;;5.07;2.20;;;;;;;;;;5089466;28;20523;-54
2021/04/13 12:56:57;;;;;;;4.80;1.83;;;;;;;;;;5092786;28;20444;-57
2021/04/13 12:59:29;;;;;;;4.30;1.50;;;;;;;;;;5091936;28;20482;-58
2021/04/13 13:02:28;;;;;;;4.00;2.07;;;;;;;;;;5091725;28;20547;-62
2021/04/13 13:04:56;;;;;;;3.23;1.53;;;;;;;;;;5097871;28;20527;-56
2021/04/13 13:07:31;;;;;;;6.53;1.83;;;;;;;;;;5114428;28;20439;-55
2021/04/13 13:10:07;;;;;;;5.43;1.47;;;;;;;;;;5114529;28;20435;-52
2021/04/13 13:12:35;;;;;;;3.80;1.60;;;;;;;;;;5095142;28;20464;-59
2021/04/13 13:15:05;;;;;;;5.37;2.00;;;;;;;;;;5112176;28;20486;-52
2021/04/13 13:17:33;;;;;;;6.50;2.03;;;;;;;;;;5092649;28;20456;-60
2021/04/13 13:20:01;;;;;;;6.50;1.93;;;;;;;;;;5087083;28;20204;-57
2021/04/13 13:22:28;;;;;;;6.90;2.47;;;;;;;;;;5097695;28;20444;-58
2021/04/13 13:25:11;;;;;;;4.55;1.60;;;;;;;;;;5088574;28;20187;-56
2021/04/13 13:27:38;;;;;;;6.45;1.92;;;;;;;;;;5081682;28;20224;-59
2021/04/13 13:30:21;;;;;;;5.13;2.38;;;;;;;;;;5082441;28;20207;-59
2021/04/13 13:32:50;;;;;;;12.85;2.20;;;;;;;;;;5083152;28;20273;-54
2021/04/13 13:35:19;;;;;;;12.68;2.45;;;;;;;;;;5113403;28;20217;-56
2021/04/13 13:37:49;;;;;;;8.15;2.72;;;;;;;;;;5098921;28;20198;-51
2021/04/13 13:40:18;;;;;;;4.88;1.77;;;;;;;;;;5097488;28;20186;-53
2021/04/13 13:42:50;;;;;;;6.60;2.03;;;;;;;;;;5090335;28;20194;-54
2021/04/13 13:45:25;;;;;;;6.20;1.93;;;;;;;;;;5097538;28;20230;-56
2021/04/13 13:47:52;;;;;;;4.97;1.90;;;;;;;;;;5097651;28;20448;-59
2021/04/13 13:50:26;;;;;;;7.87;1.80;;;;;;;;;;5092242;28;20230;-58
2021/04/13 13:52:54;;;;;;;5.07;1.47;;;;;;;;;;5090003;28;20483;-52
2021/04/13 13:55:24;;;;;;;11.53;2.57;;;;;;;;;;5096348;28;20475;-60
2021/04/13 13:58:28;;;;;;;5.60;1.97;;;;;;;;;;5088908;28;20446;-57
2021/04/13 14:00:57;;;;;;;4.30;1.70;;;;;;;;;;5075544;28;20534;-58
2021/04/13 14:03:25;;;;;;;5.00;1.30;;;;;;;;;;5093938;28;20444;-57
2021/04/13 14:05:54;;;;;;;2.80;1.57;;;;;;;;;;5101048;28;20498;-61
2021/04/13 14:08:22;;;;;;;4.30;1.57;;;;;;;;;;5099345;28;20514;-59
2021/04/13 14:11:09;;;;;;;5.00;1.63;;;;;;;;;;5086599;28;20499;-62
2021/04/13 14:13:37;;;;;;;5.10;1.43;;;;;;;;;;5097085;28;20452;-58
2021/04/13 14:19:23;;;;;;;3.07;1.13;;;;;;;;;;5099052;28;20434;-61
2021/04/13 14:21:52;;;;;;;6.90;1.90;;;;;;;;;;5089609;28;20459;-56
2021/04/13 14:24:24;;;;;;;3.20;1.07;;;;;;;;;;5094824;28;20429;-59
2021/04/13 14:27:04;;;;;;;5.43;2.15;;;;;;;;;;5091947;28;20460;-60
2021/04/13 14:29:46;;;;;;;8.70;2.10;;;;;;;;;;5100973;28;20190;-58
2021/04/13 14:32:14;;;;;;;3.60;1.20;;;;;;;;;;5086580;28;20464;-61
2021/04/13 14:34:42;;;;;;;4.45;1.75;;;;;;;;;;5110321;28;20285;-59
2021/04/13 14:37:19;;;;;;;2.63;1.10;;;;;;;;;;5112129;28;20193;-60
2021/04/13 14:39:47;;;;;;;3.58;1.30;;;;;;;;;;5093318;28;20212;-60
2021/04/13 14:42:26;;;;;;;5.82;1.52;;;;;;;;;;5093462;28;20194;-58
2021/04/13 14:44:58;;;;;;;7.43;1.80;;;;;;;;;;5076876;28;20198;-56
2021/04/13 14:47:27;;;;;;;4.50;1.50;;;;;;;;;;5077081;28;20215;-58
2021/04/13 14:50:10;;;;;;;6.45;1.65;;;;;;;;;;5076787;28;20464;-59
2021/04/13 14:52:39;;;;;;;5.13;1.53;;;;;;;;;;5096140;28;20260;-56
2021/04/13 14:55:10;;;;;;;4.10;1.77;;;;;;;;;;5096315;28;20508;-57
2021/04/13 14:57:52;;;;;;;6.33;2.30;;;;;;;;;;5096368;28;20702;-60
2021/04/13 15:00:19;;;;;;;4.43;1.33;;;;;;;;;;5092987;28;20477;-54
2021/04/13 15:02:45;;;;;;;2.83;1.03;;;;;;;;;;5083839;28;20202;-59
2021/04/13 15:05:30;;;;;;;3.80;1.60;;;;;;;;;;5095670;28;20452;-59
2021/04/13 15:07:58;;;;;;;4.33;1.63;;;;;;;;;;5096411;28;20607;-57
2021/04/13 15:10:27;;;;;;;4.60;1.80;;;;;;;;;;5095653;28;20455;-56
2021/04/13 15:13:11;;;;;;;3.93;1.10;;;;;;;;;;5094970;28;20705;-56
2021/04/13 15:15:38;;;;;;;6.60;1.80;;;;;;;;;;5093078;28;20503;-52
2021/04/13 15:18:10;;;;;;;4.40;1.40;;;;;;;;;;5095353;28;20462;-58
2021/04/13 15:20:47;;;;;;;9.13;3.13;;;;;;;;;;5095017;28;20271;-59
2021/04/13 15:23:17;;;;;;;5.10;1.60;;;;;;;;;;5095820;28;20521;-55
2021/04/13 15:25:57;;;;;;;8.38;2.00;;;;;;;;;;5091935;28;20209;-58
2021/04/13 15:28:41;;;;;;;5.07;1.63;;;;;;;;;;5095708;28;20193;-57
2021/04/13 15:33:56;;;;;;;3.35;1.48;;;;;;;;;;5095487;28;20178;-55
2021/04/13 15:36:26;;;;;;;2.42;1.10;;;;;;;;;;5093269;28;20201;-55
2021/04/13 15:38:58;;;;;;;2.75;1.05;;;;;;;;;;5101433;28;20201;-58
2021/04/13 15:41:56;;;;;;;5.68;2.17;;;;;;;;;;5087522;28;20296;-55
2021/04/13 15:44:25;;;;;;;4.68;1.80;;;;;;;;;;5093555;28;20216;-58
2021/04/13 15:46:53;;;;;;;9.15;1.88;;;;;;;;;;5095453;28;20633;-60
2021/04/13 15:49:25;;;;;;;7.10;1.80;;;;;;;;;;5095791;28;20202;-58
2021/04/13 15:51:54;;;;;;;5.35;1.80;;;;;;;;;;5096057;28;20194;-59
2021/04/13 15:54:22;;;;;;;3.50;1.08;;;;;;;;;;5094552;28;20214;-58
2021/04/13 15:57:05;;;;;;;2.63;1.00;;;;;;;;;;5094969;28;20865;-59
2021/04/13 15:59:36;;;;;;;5.40;2.15;;;;;;;;;;5089258;28;20207;-61
2021/04/13 16:02:04;;;;;;;6.70;1.75;;;;;;;;;;5095432;28;20273;-64
2021/04/13 16:05:03;;;;;;;5.25;2.28;;;;;;;;;;5093829;28;20281;-56
2021/04/13 16:07:35;;;;;;;4.65;2.10;;;;;;;;;;5078707;28;20266;-62
2021/04/13 16:10:03;;;;;;;6.10;2.25;;;;;;;;;;5095247;28;20235;-58